Time;durP1;ratioP1;P1;durP2;ratioP2;P2;SDS_P1;SDS_P2;PMS_P1;PMS_P2;Temp;Humidity;BMP_temperature;BMP_pressure;BME280_temperature;BME280_humidity;BME280_pressure;Samples;Min_cycle;Max_cycle;Signal;HPM_P1;HPM_P2
2021/04/17 00:01:38;;;;;;;2.77;1.70;;;;;;;5.70;50.06;101432.13;4986182;28;20212;-79
2021/04/17 00:04:05;;;;;;;2.53;1.63;;;;;;;5.61;50.64;101432.84;4986238;28;20214;-79
2021/04/17 00:06:32;;;;;;;2.07;1.40;;;;;;;5.64;51.07;101429.44;4986206;28;20204;-78
2021/04/17 00:08:59;;;;;;;3.43;1.60;;;;;;;5.63;51.69;101427.66;4986041;28;20645;-78
2021/04/17 00:11:26;;;;;;;5.10;1.47;;;;;;;5.64;52.14;101427.72;4986546;28;20215;-79
2021/04/17 00:13:52;;;;;;;2.03;1.60;;;;;;;5.50;51.12;101431.78;4985964;28;20295;-79
2021/04/17 00:16:19;;;;;;;1.97;1.50;;;;;;;5.34;50.68;101425.44;4986383;28;20207;-79
2021/04/17 00:18:45;;;;;;;5.43;1.70;;;;;;;5.39;51.11;101418.63;4985500;28;20299;-79
2021/04/17 00:21:12;;;;;;;5.33;1.90;;;;;;;5.30;51.22;101421.94;4986274;28;20204;-79
2021/04/17 00:23:38;;;;;;;2.40;1.60;;;;;;;5.25;52.54;101415.81;4984569;28;20231;-79
2021/04/17 00:26:04;;;;;;;3.23;1.80;;;;;;;5.10;52.63;101408.63;4986913;28;20253;-79
2021/04/17 00:28:30;;;;;;;3.63;1.50;;;;;;;5.11;52.93;101407.78;4986066;28;20222;-79
2021/04/17 00:30:57;;;;;;;3.67;1.80;;;;;;;5.08;53.36;101415.47;4986179;28;20278;-79
2021/04/17 00:33:23;;;;;;;2.40;1.93;;;;;;;4.89;54.14;101419.41;4984984;28;20231;-80
2021/04/17 00:35:49;;;;;;;5.00;2.43;;;;;;;4.64;54.77;101415.47;4985679;28;20216;-78
2021/04/17 00:38:15;;;;;;;3.07;2.00;;;;;;;4.45;55.93;101427.09;4985506;28;20803;-80
2021/04/17 00:40:41;;;;;;;3.10;1.93;;;;;;;4.21;57.01;101421.41;4985751;28;20223;-79
2021/04/17 00:43:07;;;;;;;4.37;2.10;;;;;;;4.05;57.71;101425.34;4984092;28;20604;-79
2021/04/17 00:45:34;;;;;;;2.20;2.00;;;;;;;3.94;58.73;101417.31;4985243;28;20313;-79
2021/04/17 00:48:00;;;;;;;4.00;2.83;;;;;;;3.79;60.68;101420.41;4984984;28;20208;-79
2021/04/17 00:50:26;;;;;;;3.20;2.10;;;;;;;3.72;61.33;101416.78;4985855;28;20235;-79
2021/04/17 00:52:53;;;;;;;3.10;2.43;;;;;;;3.67;60.82;101420.13;4984253;28;20235;-78
2021/04/17 00:55:18;;;;;;;6.53;2.40;;;;;;;3.69;61.58;101414.16;4985454;28;20858;-78
2021/04/17 00:57:44;;;;;;;2.63;2.07;;;;;;;3.56;61.54;101417.25;4984067;28;20242;-78
2021/04/17 01:00:12;;;;;;;2.53;2.30;;;;;;;3.42;62.37;101414.31;4985550;28;20271;-79
2021/04/17 01:02:44;;;;;;;2.83;2.23;;;;;;;3.38;62.22;101415.06;4984341;28;20247;-78
2021/04/17 01:05:15;;;;;;;2.80;2.17;;;;;;;3.34;62.61;101416.69;4984853;28;20207;-78
2021/04/17 01:07:46;;;;;;;2.70;2.50;;;;;;;3.28;63.33;101413.09;4984733;28;20214;-79
2021/04/17 01:10:16;;;;;;;5.63;2.70;;;;;;;3.24;63.51;101419.00;4983963;28;20253;-78
2021/04/17 01:12:45;;;;;;;3.03;2.30;;;;;;;3.20;63.37;101412.88;4983913;28;20317;-78
2021/04/17 01:15:15;;;;;;;3.17;2.17;;;;;;;3.18;63.31;101411.97;4984502;28;20214;-78
2021/04/17 01:17:44;;;;;;;2.70;1.90;;;;;;;3.23;62.53;101412.06;4983288;28;20701;-79
2021/04/17 01:20:16;;;;;;;3.30;2.23;;;;;;;3.28;63.55;101415.66;4984561;28;20682;-78
2021/04/17 01:22:47;;;;;;;4.20;2.57;;;;;;;3.29;63.47;101412.22;4983212;28;20230;-78
2021/04/17 01:25:17;;;;;;;3.13;2.37;;;;;;;3.30;63.34;101408.84;4984341;28;20207;-77
2021/04/17 01:27:44;;;;;;;2.50;2.30;;;;;;;3.34;63.44;101415.81;4983143;28;20607;-78
2021/04/17 01:30:12;;;;;;;3.97;2.17;;;;;;;3.32;64.03;101413.19;4984637;28;20213;-78
2021/04/17 01:32:38;;;;;;;2.67;2.10;;;;;;;3.35;62.91;101414.97;4983610;28;21246;-78
2021/04/17 01:35:07;;;;;;;3.10;2.30;;;;;;;3.34;63.17;101420.97;4984608;28;20200;-78
2021/04/17 01:38:04;;;;;;;3.07;2.00;;;;;;;3.35;63.60;101417.56;4983772;28;20231;-78
2021/04/17 01:40:33;;;;;;;4.30;2.40;;;;;;;3.42;65.04;101416.88;4980568;28;20211;-77
2021/04/17 01:43:00;;;;;;;2.33;2.13;;;;;;;3.38;64.63;101415.94;4983681;28;20235;-79
2021/04/17 01:45:28;;;;;;;2.63;2.30;;;;;;;3.35;64.06;101418.44;4984153;28;20211;-78
2021/04/17 01:47:56;;;;;;;2.33;1.93;;;;;;;3.33;64.19;101416.63;4983810;28;20231;-78
2021/04/17 01:50:25;;;;;;;2.93;2.43;;;;;;;3.24;64.19;101416.41;4984663;28;20227;-79
2021/04/17 01:52:52;;;;;;;3.33;2.07;;;;;;;3.14;63.53;101415.28;4982794;28;20736;-79
2021/04/17 01:55:18;;;;;;;3.13;2.10;;;;;;;3.11;64.29;101410.03;4984166;28;20686;-79
2021/04/17 01:57:45;;;;;;;2.83;2.27;;;;;;;3.11;64.10;101417.78;4982068;28;20293;-78
2021/04/17 02:00:13;;;;;;;3.17;2.47;;;;;;;3.06;64.32;101422.81;4984026;28;20213;-78
2021/04/17 02:02:39;;;;;;;3.87;2.00;;;;;;;2.95;65.35;101419.06;4983520;28;20231;-78
2021/04/17 02:05:06;;;;;;;3.17;2.17;;;;;;;2.94;64.96;101419.91;4983823;28;20211;-78
2021/04/17 02:07:32;;;;;;;2.40;2.00;;;;;;;2.92;65.19;101419.00;4983655;28;20705;-78
2021/04/17 02:09:58;;;;;;;4.07;2.00;;;;;;;2.87;64.87;101413.69;4983618;28;20219;-78
2021/04/17 02:12:24;;;;;;;2.80;2.20;;;;;;;2.80;65.22;101414.34;4982188;28;20391;-77
2021/04/17 02:14:50;;;;;;;3.13;2.13;;;;;;;2.79;65.37;101412.59;4983702;28;20215;-78
2021/04/17 02:17:24;;;;;;;2.57;2.00;;;;;;;2.71;65.80;101414.06;4983209;28;20265;-79
2021/04/17 02:19:54;;;;;;;3.30;2.10;;;;;;;2.66;66.47;101411.38;4984250;28;20225;-79
2021/04/17 02:22:23;;;;;;;3.50;2.33;;;;;;;2.65;65.69;101412.19;4982744;28;20593;-77
2021/04/17 02:24:50;;;;;;;3.03;2.60;;;;;;;2.69;65.50;101413.16;4983669;28;20238;-78
2021/04/17 02:27:16;;;;;;;3.47;1.97;;;;;;;2.71;65.37;101407.22;4982557;28;20208;-78
2021/04/17 02:29:42;;;;;;;2.60;1.90;;;;;;;2.59;66.28;101410.31;4983577;28;20223;-77
2021/04/17 02:32:13;;;;;;;3.83;2.20;;;;;;;2.72;65.63;101396.09;4983610;28;20219;-78
2021/04/17 02:34:40;;;;;;;5.97;2.20;;;;;;;2.71;65.85;101399.47;4984167;28;20216;-78
2021/04/17 02:37:06;;;;;;;4.20;1.93;;;;;;;2.71;65.60;101396.03;4983169;28;20227;-79
2021/04/17 02:39:32;;;;;;;3.10;1.80;;;;;;;2.67;65.81;101397.66;4983391;28;20238;-79
2021/04/17 02:41:58;;;;;;;6.93;2.03;;;;;;;2.66;65.95;101390.75;4983618;28;20840;-78
2021/04/17 02:44:24;;;;;;;3.43;2.43;;;;;;;2.68;67.71;101383.94;4983345;28;21003;-79
2021/04/17 02:46:50;;;;;;;1.93;1.70;;;;;;;2.64;65.69;101388.97;4982600;28;20306;-79
2021/04/17 02:49:15;;;;;;;2.00;1.80;;;;;;;2.64;66.87;101386.41;4984604;28;20222;-78
2021/04/17 02:51:42;;;;;;;5.30;2.03;;;;;;;2.54;66.36;101393.84;4982372;28;20219;-78
2021/04/17 02:54:09;;;;;;;2.40;1.60;;;;;;;2.50;67.33;101386.88;4983528;28;20211;-78
2021/04/17 02:56:35;;;;;;;3.47;2.10;;;;;;;2.54;67.78;101385.25;4983224;28;20218;-79
2021/04/17 02:59:01;;;;;;;2.20;2.00;;;;;;;2.39;66.81;101378.81;4983462;28;20559;-78
2021/04/17 03:01:27;;;;;;;2.60;1.87;;;;;;;2.43;67.19;101384.91;4984028;28;20330;-78
2021/04/17 03:03:53;;;;;;;3.10;1.70;;;;;;;2.44;67.05;101381.53;4982339;28;20210;-79
2021/04/17 03:06:19;;;;;;;3.60;2.00;;;;;;;2.35;67.87;101379.53;4983492;28;20278;-78
2021/04/17 03:08:45;;;;;;;3.10;2.70;;;;;;;2.28;67.41;101375.06;4983492;28;20684;-79
2021/04/17 03:11:11;;;;;;;2.90;1.80;;;;;;;2.25;67.41;101374.94;4985843;28;21251;-78
2021/04/17 03:13:37;;;;;;;3.90;1.90;;;;;;;2.30;67.48;101375.97;4986229;28;20282;-78
2021/04/17 03:16:03;;;;;;;3.37;2.07;;;;;;;2.34;67.74;101376.94;4987030;28;20302;-78
2021/04/17 03:18:29;;;;;;;2.27;2.10;;;;;;;2.28;68.91;101374.16;4986021;28;20235;-77
2021/04/17 03:20:55;;;;;;;2.40;1.80;;;;;;;2.18;68.79;101376.47;4986531;28;20210;-79
2021/04/17 03:23:21;;;;;;;2.37;2.17;;;;;;;2.19;70.23;101382.50;4985420;28;20227;-79
2021/04/17 03:25:47;;;;;;;3.17;2.87;;;;;;;2.22;68.65;101373.97;4987026;28;20229;-77
2021/04/17 03:28:13;;;;;;;2.37;2.17;;;;;;;2.25;68.67;101368.94;4985936;28;20214;-79
2021/04/17 03:30:39;;;;;;;2.77;1.90;;;;;;;2.32;68.76;101365.69;4986683;28;20216;-78
2021/04/17 03:33:06;;;;;;;2.47;1.80;;;;;;;2.37;68.03;101364.13;4985236;28;20231;-79
2021/04/17 03:35:32;;;;;;;4.67;1.90;;;;;;;2.40;67.65;101361.66;4986162;28;20211;-78
2021/04/17 03:37:59;;;;;;;4.10;1.90;;;;;;;2.48;67.71;101365.34;4985700;28;20231;-78
2021/04/17 03:40:25;;;;;;;2.10;1.80;;;;;;;2.51;67.24;101361.97;4986633;28;20208;-78
2021/04/17 03:42:51;;;;;;;3.33;2.13;;;;;;;2.50;66.82;101355.06;4985603;28;20773;-78
2021/04/17 03:45:18;;;;;;;4.07;2.67;;;;;;;2.53;66.90;101362.88;4985967;28;20209;-78
2021/04/17 03:47:44;;;;;;;2.60;2.27;;;;;;;2.55;68.44;101364.66;4985441;28;20931;-79
2021/04/17 03:50:12;;;;;;;2.80;2.10;;;;;;;2.53;68.76;101362.88;4985848;28;20218;-78
2021/04/17 03:52:38;;;;;;;4.47;2.07;;;;;;;2.54;67.42;101356.91;4984445;28;20232;-77
2021/04/17 03:55:06;;;;;;;4.37;2.30;;;;;;;2.58;66.30;101359.59;4986759;28;20266;-79
2021/04/17 03:57:32;;;;;;;2.87;2.03;;;;;;;2.68;67.56;101365.03;4985517;28;20223;-78
2021/04/17 03:59:59;;;;;;;2.33;1.63;;;;;;;2.62;67.08;101363.16;4985886;28;20313;-78
2021/04/17 04:02:25;;;;;;;4.43;1.97;;;;;;;2.58;68.44;101356.16;4985022;28;20278;-79
2021/04/17 04:04:51;;;;;;;2.77;2.20;;;;;;;2.63;68.72;101361.44;4985867;28;20219;-78
2021/04/17 04:07:16;;;;;;;2.53;2.30;;;;;;;2.59;68.54;101355.31;4985665;28;20265;-79
2021/04/17 04:09:42;;;;;;;2.53;1.80;;;;;;;2.61;66.89;101357.94;4986430;28;20219;-78
2021/04/17 04:12:09;;;;;;;3.40;2.40;;;;;;;2.69;66.55;101362.47;4984464;28;20239;-78
2021/04/17 04:14:35;;;;;;;2.53;2.00;;;;;;;2.76;67.39;101354.09;4984946;28;20909;-77
2021/04/17 04:17:02;;;;;;;2.67;1.80;;;;;;;2.88;66.37;101358.72;4985004;28;20235;-78
2021/04/17 04:19:28;;;;;;;2.20;2.00;;;;;;;3.05;67.98;101360.88;4985871;28;20335;-77
2021/04/17 04:21:54;;;;;;;2.97;2.20;;;;;;;3.10;68.65;101361.88;4984130;28;20231;-79
2021/04/17 04:24:19;;;;;;;3.83;2.37;;;;;;;3.24;69.35;101359.66;4985910;28;20585;-79
2021/04/17 04:26:45;;;;;;;2.30;2.10;;;;;;;3.38;69.00;101366.03;4984981;28;20212;-78
2021/04/17 04:29:11;;;;;;;2.40;2.13;;;;;;;3.45;68.74;101369.63;4985479;28;20218;-78
2021/04/17 04:31:37;;;;;;;3.27;2.60;;;;;;;3.36;64.78;101371.16;4985753;28;20214;-78
2021/04/17 04:34:04;;;;;;;3.13;2.30;;;;;;;3.28;65.13;101364.06;4984670;28;20301;-79
2021/04/17 04:36:30;;;;;;;2.80;2.27;;;;;;;3.18;65.91;101365.53;4985601;28;20218;-79
2021/04/17 04:38:56;;;;;;;4.43;2.50;;;;;;;3.14;65.90;101372.31;4983625;28;20238;-79
2021/04/17 04:41:22;;;;;;;2.90;2.13;;;;;;;3.12;65.48;101378.25;4985049;28;20290;-80
2021/04/17 04:43:48;;;;;;;3.30;2.47;;;;;;;3.07;67.56;101367.84;4984858;28;20230;-78
2021/04/17 04:46:14;;;;;;;8.70;2.80;;;;;;;3.04;67.85;101377.19;4984802;28;20764;-78
2021/04/17 04:48:40;;;;;;;3.10;2.07;;;;;;;3.07;67.70;101367.84;4984691;28;20207;-79
2021/04/17 04:51:06;;;;;;;2.40;2.20;;;;;;;3.03;68.09;101363.41;4984906;28;20563;-78
2021/04/17 04:53:32;;;;;;;4.17;2.67;;;;;;;3.04;65.95;101360.00;4983243;28;20265;-78
2021/04/17 04:55:58;;;;;;;2.90;2.37;;;;;;;3.15;66.84;101368.00;4985294;28;20302;-78
2021/04/17 04:58:24;;;;;;;4.07;2.57;;;;;;;3.24;66.04;101369.97;4984043;28;20273;-78
2021/04/17 05:00:50;;;;;;;3.07;2.50;;;;;;;3.22;67.15;101361.31;4985534;28;20211;-79
2021/04/17 05:03:16;;;;;;;2.40;2.20;;;;;;;3.22;67.18;101364.78;4983673;28;20227;-78
2021/04/17 05:05:42;;;;;;;3.50;2.60;;;;;;;3.22;66.20;101359.59;4984721;28;20647;-78
2021/04/17 05:08:09;;;;;;;2.97;2.33;;;;;;;3.14;66.05;101361.97;4983647;28;20199;-78
2021/04/17 05:10:34;;;;;;;2.90;2.57;;;;;;;3.09;66.72;101355.84;4983646;28;20215;-78
2021/04/17 05:13:00;;;;;;;4.17;2.70;;;;;;;3.10;66.97;101359.28;4983809;28;20328;-77
2021/04/17 05:15:26;;;;;;;3.80;3.00;;;;;;;3.10;68.23;101364.44;4984743;28;20205;-78
2021/04/17 05:17:52;;;;;;;3.73;2.70;;;;;;;3.05;68.69;101356.56;4983421;28;20231;-78
2021/04/17 05:20:18;;;;;;;4.73;3.10;;;;;;;3.06;68.93;101371.22;4984385;28;20243;-79
2021/04/17 05:22:44;;;;;;;3.33;3.03;;;;;;;3.12;69.28;101366.22;4983194;28;20231;-79
2021/04/17 05:25:11;;;;;;;5.20;3.07;;;;;;;3.12;68.86;101368.81;4985333;28;20266;-78
2021/04/17 05:27:37;;;;;;;2.80;2.50;;;;;;;3.08;69.07;101364.41;4984023;28;20689;-79
2021/04/17 05:30:04;;;;;;;3.90;2.93;;;;;;;3.11;69.76;101371.34;4985164;28;20206;-79
2021/04/17 05:32:30;;;;;;;4.53;2.40;;;;;;;3.11;69.26;101367.06;4983874;28;20289;-78
2021/04/17 05:34:56;;;;;;;4.30;3.07;;;;;;;3.12;69.64;101368.81;4985099;28;20206;-79
2021/04/17 05:37:22;;;;;;;3.37;3.00;;;;;;;3.10;69.93;101362.75;4984344;28;20707;-78
2021/04/17 05:39:48;;;;;;;4.53;3.10;;;;;;;3.13;69.68;101360.25;4985532;28;20645;-78
2021/04/17 05:42:15;;;;;;;8.27;3.17;;;;;;;3.14;70.84;101363.69;4985368;28;20263;-79
2021/04/17 05:44:41;;;;;;;4.77;3.37;;;;;;;3.16;70.12;101360.31;4984141;28;20692;-79
2021/04/17 05:47:06;;;;;;;4.27;3.10;;;;;;;3.15;70.79;101361.16;4984015;28;20207;-78
2021/04/17 05:49:32;;;;;;;4.73;3.93;;;;;;;3.16;70.91;101365.47;4984535;28;20277;-78
2021/04/17 05:51:58;;;;;;;3.50;3.17;;;;;;;3.17;71.26;101358.59;4983489;28;20787;-78
2021/04/17 05:54:24;;;;;;;5.23;3.50;;;;;;;3.22;71.78;101354.44;4984410;28;20226;-78
2021/04/17 05:56:50;;;;;;;4.77;3.57;;;;;;;3.28;70.93;101356.31;4983767;28;20262;-78
2021/04/17 05:59:17;;;;;;;7.43;3.67;;;;;;;3.26;71.16;101358.00;4984560;28;20219;-79
2021/04/17 06:01:43;;;;;;;5.07;3.70;;;;;;;3.28;71.59;101353.75;4984062;28;20215;-78
2021/04/17 06:04:09;;;;;;;4.57;3.70;;;;;;;3.28;70.99;101353.75;4982322;28;20216;-77
2021/04/17 06:06:35;;;;;;;3.87;3.57;;;;;;;3.26;71.65;101345.94;4983578;28;20332;-78
2021/04/17 06:09:01;;;;;;;5.30;3.60;;;;;;;3.28;70.80;101352.03;4982727;28;20658;-78
2021/04/17 06:11:27;;;;;;;4.63;4.07;;;;;;;3.29;72.04;101347.72;4984276;28;20222;-78
2021/04/17 06:13:53;;;;;;;4.30;3.87;;;;;;;3.34;71.55;101341.84;4982652;28;20273;-77
2021/04/17 06:16:20;;;;;;;4.47;3.70;;;;;;;3.35;71.88;101345.28;4983522;28;20696;-78
2021/04/17 06:18:46;;;;;;;4.70;4.20;;;;;;;3.35;72.76;101343.63;4982882;28;20232;-80
2021/04/17 06:21:12;;;;;;;4.67;4.10;;;;;;;3.40;72.74;101345.44;4984251;28;20259;-79
2021/04/17 06:23:38;;;;;;;5.57;4.33;;;;;;;3.43;72.73;101345.50;4982882;28;20231;-79
2021/04/17 06:26:04;;;;;;;5.00;4.03;;;;;;;3.52;73.02;101338.00;4984572;28;20215;-79
2021/04/17 06:28:31;;;;;;;5.97;4.37;;;;;;;3.53;72.18;101339.75;4984032;28;20572;-80
2021/04/17 06:30:57;;;;;;;5.13;4.40;;;;;;;3.47;71.68;101335.31;4984567;28;20627;-79
2021/04/17 06:33:24;;;;;;;4.67;4.27;;;;;;;3.57;71.84;101331.25;4982705;28;20334;-79
2021/04/17 06:35:49;;;;;;;4.97;4.50;;;;;;;3.64;72.03;101333.13;4984394;28;20786;-79
2021/04/17 06:38:16;;;;;;;4.93;4.40;;;;;;;3.66;72.55;101339.19;4984036;28;20230;-79
2021/04/17 06:40:42;;;;;;;5.47;4.83;;;;;;;3.69;72.23;101347.03;4985265;28;20206;-79
2021/04/17 06:43:09;;;;;;;5.30;4.90;;;;;;;3.71;72.64;101339.31;4983593;28;20237;-79
2021/04/17 06:45:38;;;;;;;5.13;4.70;;;;;;;3.74;72.47;101341.94;4989142;28;20640;-78
2021/04/17 06:48:05;;;;;;;5.57;5.07;;;;;;;3.72;72.43;101333.31;4987855;28;20222;-79
2021/04/17 06:50:33;;;;;;;5.60;5.07;;;;;;;3.76;72.95;101333.41;4988452;28;20217;-79
2021/04/17 06:53:02;;;;;;;5.70;5.20;;;;;;;3.81;73.36;101332.66;4987651;28;20231;-78
2021/04/17 06:55:28;;;;;;;6.10;5.50;;;;;;;3.90;73.20;101338.88;4988670;28;20215;-79
2021/04/17 06:57:55;;;;;;;6.17;5.60;;;;;;;3.94;72.36;101337.25;4987506;28;20231;-79
2021/04/17 07:00:22;;;;;;;5.80;5.30;;;;;;;4.00;72.70;101332.22;4987518;28;20212;-79
2021/04/17 07:02:48;;;;;;;5.97;5.37;;;;;;;4.04;72.71;101330.56;4984923;28;20231;-80
2021/04/17 07:05:15;;;;;;;6.17;5.67;;;;;;;4.12;72.37;101326.44;4986061;28;20207;-79
2021/04/17 07:07:42;;;;;;;8.00;6.30;;;;;;;4.11;73.02;101329.88;4986627;28;20602;-79
2021/04/17 07:10:09;;;;;;;6.80;6.20;;;;;;;4.28;72.90;101340.56;4985913;28;20207;-78
2021/04/17 07:12:35;;;;;;;6.20;5.33;;;;;;;4.47;71.59;101332.34;4984873;28;20281;-76
2021/04/17 07:15:04;;;;;;;6.00;5.50;;;;;;;4.67;71.54;101342.25;4986161;28;20215;-79
2021/04/17 07:17:33;;;;;;;7.67;5.53;;;;;;;4.80;70.96;101335.56;4986072;28;21202;-79
2021/04/17 07:20:00;;;;;;;6.30;5.73;;;;;;;4.75;69.88;101323.44;4986642;28;20203;-79
2021/04/17 07:22:28;;;;;;;7.00;6.30;;;;;;;4.70;70.65;101319.03;4985071;28;20223;-79
2021/04/17 07:24:57;;;;;;;7.00;6.30;;;;;;;4.51;70.37;101310.03;4985313;28;20208;-78
2021/04/17 07:27:33;;;;;;;6.47;5.93;;;;;;;4.73;70.30;101322.53;4984245;28;20526;-78
2021/04/17 07:30:00;;;;;;;6.70;5.87;;;;;;;4.77;69.94;101303.63;4985030;28;20199;-78
2021/04/17 07:32:26;;;;;;;5.73;5.13;;;;;;;4.81;68.64;101320.09;4984584;28;20227;-77
2021/04/17 07:35:14;;;;;;;5.93;5.33;;;;;;;4.91;69.17;101315.97;4986900;28;20233;-79
2021/04/17 07:37:42;;;;;;;6.80;5.50;;;;;;;5.12;68.68;101315.50;4980788;28;20239;-79
2021/04/17 07:40:17;;;;;;;6.77;5.57;;;;;;;5.18;67.59;101316.47;4986094;28;20218;-79
2021/04/17 07:42:44;;;;;;;6.13;5.63;;;;;;;5.27;67.24;101313.19;4986180;28;20702;-78
2021/04/17 07:45:22;;;;;;;6.67;5.57;;;;;;;5.29;68.08;101310.59;4986785;28;20207;-78
2021/04/17 07:47:48;;;;;;;6.33;5.73;;;;;;;5.28;67.99;101304.53;4985267;28;20223;-78
2021/04/17 07:50:17;;;;;;;6.53;5.10;;;;;;;5.45;66.87;101301.34;4986391;28;20208;-79
2021/04/17 07:52:43;;;;;;;7.40;5.97;;;;;;;5.37;67.20;101307.28;4985881;28;20227;-78
2021/04/17 07:55:10;;;;;;;6.20;5.20;;;;;;;5.46;66.94;101300.53;4985163;28;20202;-78
2021/04/17 07:57:39;;;;;;;6.00;5.40;;;;;;;5.12;67.83;101299.97;4986231;28;20231;-78
2021/04/17 08:00:07;;;;;;;6.73;6.13;;;;;;;5.12;68.51;101290.47;4985973;28;20632;-77
2021/04/17 08:02:34;;;;;;;9.07;5.57;;;;;;;5.27;67.85;101283.81;4985735;28;20231;-82
2021/04/17 08:05:00;;;;;;;6.57;5.80;;;;;;;5.32;67.91;101288.22;4986778;28;20212;-79
2021/04/17 08:07:27;;;;;;;7.50;5.43;;;;;;;5.40;67.91;101287.47;4986271;28;20207;-78
2021/04/17 08:09:55;;;;;;;6.10;5.60;;;;;;;5.33;67.90;101278.72;4986209;28;20223;-78
2021/04/17 08:12:23;;;;;;;5.57;5.17;;;;;;;5.24;67.58;101281.19;4986631;28;20227;-80
2021/04/17 08:14:50;;;;;;;6.13;5.53;;;;;;;5.33;67.61;101281.31;4987586;28;20304;-78
2021/04/17 08:17:16;;;;;;;5.73;5.23;;;;;;;5.43;68.06;101293.59;4986104;28;20285;-77
2021/04/17 08:19:42;;;;;;;6.00;5.47;;;;;;;5.60;67.26;101273.09;4985127;28;20212;-80
2021/04/17 08:22:08;;;;;;;5.87;5.33;;;;;;;5.82;66.54;101279.47;4984935;28;20285;-77
2021/04/17 08:24:34;;;;;;;6.10;5.60;;;;;;;5.94;66.13;101271.84;4981230;28;20216;-78
2021/04/17 08:27:02;;;;;;;8.73;5.70;;;;;;;5.92;66.35;101272.69;4985611;28;20245;-77
2021/04/17 08:29:45;;;;;;;5.37;4.93;;;;;;;5.95;66.57;101267.59;4985139;28;20204;-76
2021/04/17 08:32:30;;;;;;;6.90;5.50;;;;;;;6.15;64.93;101257.50;4984522;28;20287;-78
2021/04/17 08:35:09;;;;;;;5.90;5.17;;;;;;;6.38;65.01;101255.16;4984719;28;20215;-77
2021/04/17 08:37:56;;;;;;;5.50;4.97;;;;;;;6.38;64.91;101267.25;4984513;28;20233;-75
2021/04/17 08:40:41;;;;;;;5.23;4.77;;;;;;;6.21;64.12;101260.16;4984468;28;20249;-77
2021/04/17 08:43:32;;;;;;;6.53;4.67;;;;;;;6.31;64.28;101264.59;4983197;28;20622;-75
2021/04/17 08:46:13;;;;;;;5.27;4.73;;;;;;;6.38;63.28;101265.53;4985323;28;20215;-78
2021/04/17 08:48:48;;;;;;;4.47;4.07;;;;;;;6.36;63.37;101264.63;4984817;28;20214;-79
2021/04/17 08:51:32;;;;;;;4.90;4.40;;;;;;;6.47;62.43;101268.22;4986242;28;20211;-77
2021/04/17 08:54:18;;;;;;;5.93;4.60;;;;;;;6.48;62.82;101254.44;4984036;28;20207;-78
2021/04/17 08:56:51;;;;;;;5.83;4.63;;;;;;;6.47;62.46;101257.84;4984551;28;20214;-78
2021/04/17 08:59:19;;;;;;;6.70;5.00;;;;;;;6.53;63.12;101260.50;4984974;28;20710;-77
2021/04/17 09:01:46;;;;;;;4.83;4.40;;;;;;;6.66;61.58;101263.22;4984080;28;20242;-78
2021/04/17 09:04:13;;;;;;;7.70;4.23;;;;;;;6.79;62.20;101256.47;4984247;28;20254;-79
2021/04/17 09:06:41;;;;;;;4.80;4.30;;;;;;;6.98;62.05;101250.59;4984508;28;20421;-77
2021/04/17 09:09:24;;;;;;;5.17;4.67;;;;;;;7.23;61.14;101251.66;4984100;28;20205;-77
2021/04/17 09:11:51;;;;;;;7.07;5.03;;;;;;;7.05;61.32;101248.91;4983529;28;20539;-77
2021/04/17 09:14:56;;;;;;;4.73;4.27;;;;;;;7.03;60.79;101246.28;4983762;28;20235;-78
2021/04/17 09:17:49;;;;;;;6.33;4.50;;;;;;;7.16;60.97;101253.34;4970173;28;20764;-78
2021/04/17 09:20:37;;;;;;;5.97;5.33;;;;;;;7.34;60.51;101254.34;4984127;28;20302;-77
2021/04/17 09:23:03;;;;;;;5.30;4.77;;;;;;;7.44;59.80;101247.50;4983687;28;20961;-76
2021/04/17 09:25:43;;;;;;;5.03;4.27;;;;;;;7.22;60.28;101247.31;4984231;28;20211;-79
2021/04/17 09:28:10;;;;;;;6.33;5.00;;;;;;;7.34;60.96;101238.75;4984507;28;20215;-79
2021/04/17 09:30:36;;;;;;;6.50;5.47;;;;;;;7.42;60.88;101244.88;4983725;28;20917;-79
2021/04/17 09:33:03;;;;;;;5.73;5.23;;;;;;;7.54;60.32;101238.91;4983770;28;20237;-78
2021/04/17 09:35:31;;;;;;;6.30;4.83;;;;;;;7.62;60.66;101246.75;4982431;28;20687;-79
2021/04/17 09:38:06;;;;;;;5.50;4.97;;;;;;;7.74;59.92;101244.22;4984203;28;20228;-78
2021/04/17 09:40:33;;;;;;;5.83;4.93;;;;;;;7.67;60.52;101240.72;4984016;28;20286;-78
2021/04/17 09:43:00;;;;;;;6.87;5.10;;;;;;;7.66;60.84;101246.75;4982894;28;20274;-76
2021/04/17 09:45:32;;;;;;;7.40;5.40;;;;;;;7.42;61.51;101246.59;4986583;28;20211;-78
2021/04/17 09:48:00;;;;;;;6.00;5.30;;;;;;;7.42;62.01;101244.00;4983944;28;20298;-78
2021/04/17 09:50:27;;;;;;;6.30;5.23;;;;;;;7.41;61.46;101229.28;4986536;28;20204;-79
2021/04/17 09:52:54;;;;;;;6.03;5.20;;;;;;;7.48;61.91;101234.53;4983845;28;20765;-79
2021/04/17 09:55:20;;;;;;;5.27;4.77;;;;;;;7.40;61.77;101230.16;4985458;28;20209;-78
2021/04/17 09:57:47;;;;;;;5.63;5.13;;;;;;;7.67;61.58;101227.72;4985486;28;20368;-79
2021/04/17 10:00:14;;;;;;;6.63;5.50;;;;;;;7.86;61.83;101222.63;4985549;28;20208;-78
2021/04/17 10:02:43;;;;;;;6.73;5.40;;;;;;;7.85;61.18;101216.56;4984353;28;20682;-78
2021/04/17 10:05:11;;;;;;;6.83;5.77;;;;;;;8.01;61.16;101211.41;4984758;28;20269;-79
2021/04/17 10:07:41;;;;;;;8.67;5.50;;;;;;;8.11;59.87;101213.19;4985344;28;20226;-77
2021/04/17 10:10:09;;;;;;;10.00;5.27;;;;;;;8.09;60.52;101207.13;4985445;28;20208;-77
2021/04/17 10:12:46;;;;;;;9.80;5.57;;;;;;;8.06;60.93;101207.09;4984744;28;20239;-77
2021/04/17 10:15:20;;;;;;;7.33;5.50;;;;;;;8.09;61.03;101212.31;4985992;28;20214;-79
2021/04/17 10:17:48;;;;;;;6.43;5.43;;;;;;;8.18;60.30;101201.94;4984315;28;20233;-79
2021/04/17 10:20:15;;;;;;;5.87;5.30;;;;;;;8.22;59.22;101198.47;4988607;28;20207;-77
2021/04/17 10:22:41;;;;;;;6.20;5.60;;;;;;;8.32;60.04;101207.16;4986829;28;20232;-78
2021/04/17 10:25:09;;;;;;;6.40;5.80;;;;;;;8.41;59.27;101188.13;4988114;28;20778;-79
2021/04/17 10:27:37;;;;;;;5.10;4.70;;;;;;;8.16;60.45;101188.91;4986921;28;20867;-79
2021/04/17 10:30:15;;;;;;;6.57;6.07;;;;;;;8.33;61.73;101191.56;4989185;28;20395;-79
2021/04/17 10:32:41;;;;;;;12.33;8.67;;;;;;;8.18;61.17;101186.31;4986090;28;20228;-77
2021/04/17 10:35:11;;;;;;;6.30;5.70;;;;;;;8.55;61.00;101187.31;4987694;28;20742;-79
2021/04/17 10:37:44;;;;;;;6.23;5.70;;;;;;;8.97;59.83;101183.88;4986443;28;20231;-79
2021/04/17 10:40:12;;;;;;;6.87;5.60;;;;;;;9.20;58.88;101179.53;4986690;28;20204;-78
2021/04/17 10:42:45;;;;;;;7.93;5.80;;;;;;;9.34;58.95;101188.16;4985873;28;20234;-78
2021/04/17 10:45:13;;;;;;;6.67;5.27;;;;;;;9.41;56.83;101175.13;4986118;28;20237;-78
2021/04/17 10:47:39;;;;;;;5.33;4.83;;;;;;;9.65;57.56;101166.38;4985363;28;20563;-77
2021/04/17 10:50:17;;;;;;;8.97;5.00;;;;;;;9.65;57.53;101175.06;4987150;28;20274;-79
2021/04/17 10:52:44;;;;;;;4.87;4.17;;;;;;;9.73;55.96;101164.59;4986432;28;20686;-79
2021/04/17 10:55:11;;;;;;;5.20;4.80;;;;;;;9.90;55.62;101159.31;4987543;28;20469;-78
2021/04/17 10:57:43;;;;;;;5.63;5.13;;;;;;;10.02;55.40;101164.47;4987899;28;21097;-79
2021/04/17 11:00:10;;;;;;;6.03;4.47;;;;;;;10.24;53.64;101160.00;4987911;28;20210;-78
2021/04/17 11:02:36;;;;;;;4.93;4.00;;;;;;;10.36;52.05;101166.94;4986877;28;20241;-77
2021/04/17 11:05:05;;;;;;;4.67;3.77;;;;;;;10.48;51.87;101158.16;4988827;28;20216;-80
2021/04/17 11:07:34;;;;;;;3.73;3.33;;;;;;;10.51;50.62;101164.22;4987666;28;20209;-79
2021/04/17 11:10:01;;;;;;;5.37;4.20;;;;;;;10.51;52.08;101168.59;4987734;28;20215;-80
2021/04/17 11:12:29;;;;;;;4.40;3.93;;;;;;;10.31;52.50;101168.72;4987336;28;20235;-78
2021/04/17 11:15:16;;;;;;;6.83;3.97;;;;;;;10.46;53.39;101160.75;4987366;28;20255;-77
2021/04/17 11:17:43;;;;;;;4.87;4.00;;;;;;;10.64;52.08;101166.75;4997318;28;20252;-84
2021/04/17 11:20:27;;;;;;;4.60;3.90;;;;;;;10.56;50.82;101160.72;4999418;28;21051;-82
2021/04/17 11:22:54;;;;;;;4.00;3.60;;;;;;;10.39;50.89;101158.22;4998241;28;20239;-83
2021/04/17 11:25:20;;;;;;;5.37;4.03;;;;;;;10.49;51.12;101152.94;4996316;28;20207;-79
2021/04/17 11:27:46;;;;;;;5.87;3.90;;;;;;;10.60;52.69;101157.19;4996398;28;20660;-81
2021/04/17 11:30:14;;;;;;;3.27;2.97;;;;;;;10.65;51.05;101151.06;4992425;28;20208;-80
2021/04/17 11:32:40;;;;;;;2.93;2.73;;;;;;;10.72;47.12;101150.16;4991058;28;20232;-80
2021/04/17 11:35:07;;;;;;;4.43;2.73;;;;;;;10.72;46.49;101150.16;4989831;28;20213;-79
2021/04/17 11:37:33;;;;;;;3.47;3.13;;;;;;;10.68;46.80;101150.16;4989158;28;20477;-78